Terminal Aerodrome Forecast
Issued by NWS Boise, ID

Home | Current Version | Previous Version | Text Only | Print | Product List | Glossary On
Versions: 1 2 3 4 5 6 7 8 9 10 11 12 13 14 15 16 17 18 19 20 21 22 23 24 25 26 27 28 29 30
000
FTUS45 KBOI 280812 AAB
TAFBOI
TAF AMD
KBOI 280812Z 2808/2906 13008KT P6SM VCSH SCT080 OVC100
      TEMPO 2808/2811 00000KT 1/2SM FG BKN002
     FM290200 13010KT P6SM VCSH SCT030 OVC050=

USA.gov is the U.S. government's official web portal to all federal, state and local government web resources and services.